createdAt,value
2018-04-07T00:02:23.176Z,6.05
2018-04-07T00:04:59.022Z,5.95
2018-04-07T00:07:28.340Z,6.02
2018-04-07T00:09:57.678Z,6.02
2018-04-07T00:12:26.307Z,5.86
2018-04-07T00:14:54.924Z,5.84
2018-04-07T00:17:23.469Z,5.82
2018-04-07T00:19:55.663Z,5.84
2018-04-07T00:22:24.424Z,5.87
2018-04-07T00:24:53.066Z,6.02
2018-04-07T00:27:21.654Z,5.97
2018-04-07T00:29:50.707Z,5.83
2018-04-07T00:32:19.259Z,5.84
2018-04-07T00:34:47.865Z,5.84
2018-04-07T00:37:16.455Z,5.76
2018-04-07T00:39:45.485Z,5.79
2018-04-07T00:42:14.026Z,5.67
2018-04-07T00:44:42.698Z,5.72
2018-04-07T00:47:11.222Z,5.57
2018-04-07T00:49:44.567Z,5.70
2018-04-07T00:52:13.087Z,5.64
2018-04-07T00:54:41.646Z,5.69
2018-04-07T00:57:10.170Z,5.64
2018-04-07T00:59:38.814Z,5.63
2018-04-07T01:02:07.388Z,5.63
2018-04-07T01:04:36.187Z,5.50
2018-04-07T01:07:04.786Z,5.54
2018-04-07T01:09:34.176Z,5.49
2018-04-07T01:12:02.856Z,5.50
2018-04-07T01:14:31.316Z,5.48
2018-04-07T01:16:59.805Z,5.37
2018-04-07T01:19:28.709Z,5.50
2018-04-07T01:21:57.293Z,5.45
2018-04-07T01:24:25.787Z,5.47
2018-04-07T01:26:54.297Z,5.41
2018-04-07T01:29:23.170Z,5.18
2018-04-07T01:31:51.729Z,5.15
2018-04-07T01:34:20.262Z,5.18
2018-04-07T01:36:48.862Z,5.24
2018-04-07T01:39:17.705Z,5.13
2018-04-07T01:41:46.425Z,5.09
2018-04-07T01:44:14.897Z,5.07
2018-04-07T01:46:43.445Z,5.09
2018-04-07T01:49:12.262Z,5.03
2018-04-07T01:51:40.871Z,5.06
2018-04-07T01:54:09.484Z,5.02
2018-04-07T01:56:38.098Z,4.94
2018-04-07T01:59:06.887Z,4.95
2018-04-07T02:01:35.502Z,4.84
2018-04-07T02:04:04.067Z,4.92
2018-04-07T02:06:32.621Z,4.96
2018-04-07T02:09:01.582Z,4.82
2018-04-07T02:11:30.185Z,4.76
2018-04-07T02:13:58.803Z,4.75
2018-04-07T02:16:27.321Z,4.69
2018-04-07T02:18:57.170Z,4.74
2018-04-07T02:21:25.665Z,4.65
2018-04-07T02:23:54.218Z,4.66
2018-04-07T02:26:22.708Z,4.65
2018-04-07T02:28:51.603Z,4.58
2018-04-07T02:31:20.154Z,4.59
2018-04-07T02:33:48.799Z,4.47
2018-04-07T02:36:17.362Z,4.58
2018-04-07T02:38:47.170Z,4.49
2018-04-07T02:41:15.783Z,4.43
2018-04-07T02:43:45.799Z,4.49
2018-04-07T02:46:14.663Z,4.29
2018-04-07T02:48:43.536Z,4.37
2018-04-07T02:51:12.202Z,4.38
2018-04-07T02:53:40.823Z,4.44
2018-04-07T02:56:09.476Z,4.42
2018-04-07T02:58:38.306Z,4.40
2018-04-07T03:01:06.958Z,4.34
2018-04-07T03:03:35.485Z,4.30
2018-04-07T03:06:04.058Z,4.26
2018-04-07T03:08:33.875Z,4.28
2018-04-07T03:11:02.462Z,4.27
2018-04-07T03:13:30.996Z,4.26
2018-04-07T03:15:59.605Z,4.18
2018-04-07T03:18:28.445Z,4.20
2018-04-07T03:20:57.023Z,4.09
2018-04-07T03:23:25.559Z,4.18
2018-04-07T03:25:54.142Z,4.14
2018-04-07T03:28:22.906Z,4.16
2018-04-07T03:30:51.389Z,4.11
2018-04-07T03:33:19.898Z,4.16
2018-04-07T03:35:48.430Z,4.15
2018-04-07T03:38:17.268Z,4.17
2018-04-07T03:40:45.800Z,4.09
2018-04-07T03:43:14.328Z,4.11
2018-04-07T03:45:42.900Z,4.04
2018-04-07T03:48:11.805Z,4.10
2018-04-07T03:50:40.389Z,4.09
2018-04-07T03:53:09.064Z,4.05
2018-04-07T03:55:37.563Z,4.08
2018-04-07T03:58:08.442Z,4.03
2018-04-07T04:00:37.030Z,4.02
2018-04-07T04:03:05.621Z,4.00
2018-04-07T04:05:34.179Z,3.97
2018-04-07T04:10:36.964Z,3.87
2018-04-07T04:13:05.856Z,3.86
2018-04-07T04:15:34.212Z,3.88
2018-04-07T04:18:02.871Z,3.86
2018-04-07T04:20:31.357Z,3.84
2018-04-07T04:22:59.783Z,3.88
2018-04-07T04:25:28.131Z,3.84
2018-04-07T04:27:57.766Z,3.84
2018-04-07T04:30:26.136Z,3.93
2018-04-07T04:32:54.422Z,3.89
2018-04-07T04:35:22.676Z,3.89
2018-04-07T04:37:51.235Z,3.83
2018-04-07T04:40:19.692Z,3.82
2018-04-07T04:42:47.990Z,3.80
2018-04-07T04:45:16.459Z,3.68
2018-04-07T04:47:45.075Z,3.82
2018-04-07T04:50:13.430Z,3.84
2018-04-07T04:52:41.749Z,3.76
2018-04-07T04:55:10.122Z,3.73
2018-04-07T04:57:40.864Z,3.65
2018-04-07T05:00:09.866Z,3.61
2018-04-07T05:02:38.223Z,3.65
2018-04-07T05:05:08.022Z,3.73
2018-04-07T05:07:36.342Z,3.72
2018-04-07T05:10:06.244Z,3.77
2018-04-07T05:12:35.007Z,3.80
2018-04-07T05:15:03.366Z,3.67
2018-04-07T05:17:31.691Z,3.61
2018-04-07T05:20:00.091Z,3.65
2018-04-07T05:22:28.439Z,3.67
2018-04-07T05:24:56.779Z,3.65
2018-04-07T05:27:25.688Z,3.71
2018-04-07T05:29:54.010Z,3.74
2018-04-07T05:32:22.403Z,3.68
2018-04-07T05:34:51.182Z,3.74
2018-04-07T05:37:20.842Z,3.76
2018-04-07T05:39:49.426Z,3.88
2018-04-07T05:42:17.788Z,3.83
2018-04-07T05:44:46.133Z,3.87
2018-04-07T05:47:14.892Z,3.99
2018-04-07T05:49:43.265Z,4.02
2018-04-07T05:52:11.833Z,4.02
2018-04-07T05:54:40.141Z,4.13
2018-04-07T05:57:10.854Z,4.14
2018-04-07T05:59:39.132Z,4.29
2018-04-07T06:02:07.814Z,4.37
2018-04-07T06:04:36.355Z,4.49
2018-04-07T06:07:04.963Z,4.63
2018-04-07T06:09:33.322Z,4.77
2018-04-07T06:12:01.772Z,4.82
2018-04-07T06:14:30.134Z,4.95
2018-04-07T06:16:58.835Z,5.08
2018-04-07T06:19:27.391Z,5.20
2018-04-07T06:21:55.748Z,5.52
2018-04-07T06:24:24.125Z,5.61
2018-04-07T06:26:52.768Z,5.82
2018-04-07T06:29:21.581Z,6.06
2018-04-07T06:31:50.880Z,6.31
2018-04-07T06:34:19.305Z,6.49
2018-04-07T06:36:49.007Z,6.68
2018-04-07T06:39:17.309Z,6.71
2018-04-07T06:41:46.446Z,6.89
2018-04-07T06:44:14.796Z,6.98
2018-04-07T06:46:44.511Z,7.10
2018-04-07T06:49:13.179Z,7.23
2018-04-07T06:51:41.545Z,7.61
2018-04-07T06:54:10.331Z,7.75
2018-04-07T06:56:38.763Z,7.91
2018-04-07T06:59:07.237Z,7.97
2018-04-07T07:01:35.878Z,8.14
2018-04-07T07:04:04.359Z,8.42
2018-04-07T07:06:32.816Z,8.60
2018-04-07T07:09:01.230Z,8.77
2018-04-07T07:11:29.582Z,8.92
2018-04-07T07:13:57.962Z,9.07
2018-04-07T07:16:26.743Z,9.33
2018-04-07T07:18:55.096Z,9.45
2018-04-07T07:21:23.502Z,9.68
2018-04-07T07:23:51.835Z,9.91
2018-04-07T07:26:20.210Z,10.11
2018-04-07T07:28:48.563Z,10.19
2018-04-07T07:31:17.329Z,10.38
2018-04-07T07:33:45.836Z,10.62
2018-04-07T07:36:14.201Z,10.84
2018-04-07T07:38:42.901Z,10.95
2018-04-07T07:41:11.254Z,11.29
2018-04-07T07:43:39.628Z,11.57
2018-04-07T07:46:07.977Z,11.89
2018-04-07T07:48:40.536Z,12.56
2018-04-07T07:51:08.961Z,13.33
2018-04-07T07:53:37.252Z,14.04
2018-04-07T07:56:05.792Z,14.87
2018-04-07T07:58:34.445Z,15.43
2018-04-07T08:01:02.890Z,15.23
2018-04-07T08:03:31.586Z,16.28
2018-04-07T08:06:00.105Z,15.58
2018-04-07T08:08:28.584Z,15.59
2018-04-07T08:10:57.020Z,17.81
2018-04-07T08:13:25.310Z,17.62
2018-04-07T08:15:53.689Z,17.46
2018-04-07T08:18:22.589Z,18.09
2018-04-07T08:20:51.315Z,18.54
2018-04-07T08:23:19.626Z,19.00
2018-04-07T08:25:48.018Z,18.64
2018-04-07T08:28:16.589Z,18.93
2018-04-07T08:30:44.968Z,20.63
2018-04-07T08:33:13.589Z,20.99
2018-04-07T08:35:42.277Z,21.62
2018-04-07T08:38:12.206Z,20.04
2018-04-07T08:40:42.196Z,19.98
2018-04-07T08:43:10.556Z,20.56
2018-04-07T08:45:38.862Z,21.55
2018-04-07T08:48:07.622Z,21.13
2018-04-07T08:50:36.004Z,22.59
2018-04-07T08:53:04.373Z,23.42
2018-04-07T08:55:32.850Z,23.29
2018-04-07T08:58:02.510Z,21.05
2018-04-07T09:00:31.104Z,22.68
2018-04-07T09:02:59.437Z,22.35
2018-04-07T09:05:27.744Z,23.70
2018-04-07T09:07:56.410Z,22.62
2018-04-07T09:10:24.778Z,22.61
2018-04-07T09:12:53.175Z,22.37
2018-04-07T09:15:21.720Z,24.80
2018-04-07T09:17:50.454Z,24.99
2018-04-07T09:20:18.788Z,23.92
2018-04-07T09:22:47.312Z,24.79
2018-04-07T09:25:15.557Z,25.03
2018-04-07T09:27:44.414Z,26.03
2018-04-07T09:30:15.302Z,24.93
2018-04-07T09:32:43.754Z,25.66
2018-04-07T09:35:12.104Z,24.49
2018-04-07T09:37:41.975Z,25.21
2018-04-07T09:40:10.220Z,26.71
2018-04-07T09:42:38.697Z,26.79
2018-04-07T09:45:08.626Z,26.47
2018-04-07T09:47:41.205Z,26.70
2018-04-07T09:50:09.652Z,24.30
2018-04-07T09:52:37.974Z,25.06
2018-04-07T09:55:07.357Z,24.68
2018-04-07T09:57:36.006Z,26.80
2018-04-07T10:00:05.912Z,25.50
2018-04-07T10:02:36.144Z,25.53
2018-04-07T10:05:05.197Z,24.83
2018-04-07T10:07:33.754Z,25.28
2018-04-07T10:10:03.641Z,26.04
2018-04-07T10:12:31.978Z,25.35
2018-04-07T10:15:00.474Z,26.05
2018-04-07T10:17:28.846Z,26.94
2018-04-07T10:19:57.607Z,26.29
2018-04-07T10:22:25.990Z,27.35
2018-04-07T10:24:54.381Z,27.27
2018-04-07T10:27:22.734Z,27.38
2018-04-07T10:29:51.145Z,25.95
2018-04-07T10:32:19.873Z,25.53
2018-04-07T10:34:48.187Z,24.29
2018-04-07T10:37:16.534Z,24.32
2018-04-07T10:42:24.684Z,23.33
2018-04-07T10:44:52.981Z,23.98
2018-04-07T10:47:21.495Z,24.29
2018-04-07T10:49:49.982Z,24.19
2018-04-07T10:52:18.646Z,24.37
2018-04-07T10:54:47.120Z,24.10
2018-04-07T10:57:15.468Z,24.87
2018-04-07T10:59:45.216Z,24.45
2018-04-07T11:02:13.636Z,24.82
2018-04-07T11:04:42.029Z,24.55
2018-04-07T11:07:10.518Z,23.92
2018-04-07T11:09:39.248Z,23.60
2018-04-07T11:12:07.772Z,23.16
2018-04-07T11:14:36.111Z,23.18
2018-04-07T11:17:04.529Z,22.90
2018-04-07T11:19:34.184Z,22.55
2018-04-07T11:22:02.633Z,22.61
2018-04-07T11:24:31.048Z,22.13
2018-04-07T11:26:59.420Z,22.15
2018-04-07T11:29:28.075Z,22.25
2018-04-07T11:31:56.479Z,22.04
2018-04-07T11:34:24.798Z,21.83
2018-04-07T11:36:53.149Z,21.85
2018-04-07T11:39:21.779Z,22.02
2018-04-07T11:41:50.121Z,22.08
2018-04-07T11:44:18.456Z,22.03
2018-04-07T11:46:46.830Z,22.10
2018-04-07T11:49:16.441Z,22.29
2018-04-07T11:51:44.838Z,22.45
2018-04-07T11:54:13.225Z,22.35
2018-04-07T11:56:41.694Z,22.34
2018-04-07T11:59:10.380Z,22.21
2018-04-07T12:01:38.749Z,22.24
2018-04-07T12:04:07.123Z,22.40
2018-04-07T12:06:35.460Z,22.38
2018-04-07T12:09:04.152Z,22.30
2018-04-07T12:11:32.668Z,22.21
2018-04-07T12:14:01.020Z,22.51
2018-04-07T12:16:29.358Z,22.41
2018-04-07T12:18:58.312Z,22.33
2018-04-07T12:21:26.687Z,22.26
2018-04-07T12:23:55.040Z,22.25
2018-04-07T12:26:24.255Z,22.26
2018-04-07T12:28:52.979Z,22.17
2018-04-07T12:31:21.469Z,22.28
2018-04-07T12:33:49.873Z,22.44
2018-04-07T12:36:18.283Z,22.37
2018-04-07T12:38:46.892Z,22.57
2018-04-07T12:41:15.231Z,22.66
2018-04-07T12:43:43.603Z,22.65
2018-04-07T12:46:11.979Z,22.86
2018-04-07T12:48:40.665Z,22.66
2018-04-07T12:51:09.528Z,22.65
2018-04-07T12:53:37.880Z,22.78
2018-04-07T12:56:06.285Z,22.72
2018-04-07T12:58:34.871Z,22.77
2018-04-07T13:01:03.184Z,23.14
2018-04-07T13:03:31.517Z,22.96
2018-04-07T13:05:59.890Z,22.97
2018-04-07T13:08:28.302Z,23.19
2018-04-07T13:10:56.599Z,23.48
2018-04-07T13:13:24.998Z,23.88
2018-04-07T13:15:54.751Z,24.19
2018-04-07T13:18:23.340Z,24.36
2018-04-07T13:23:54.232Z,25.73
2018-04-07T13:26:22.736Z,26.18
2018-04-07T13:28:53.859Z,26.07
2018-04-07T13:31:22.207Z,25.95
2018-04-07T13:33:50.899Z,26.01
2018-04-07T13:36:19.331Z,26.76
2018-04-07T13:38:47.734Z,27.71
2018-04-07T13:41:16.106Z,27.96
2018-04-07T13:43:44.702Z,28.72
2018-04-07T13:46:13.042Z,29.63
2018-04-07T13:48:41.388Z,29.46
2018-04-07T13:51:09.760Z,28.90
2018-04-07T13:53:40.495Z,28.48
2018-04-07T13:56:08.895Z,28.23
2018-04-07T13:58:37.197Z,28.40
2018-04-07T14:01:05.570Z,29.11
2018-04-07T14:03:33.937Z,29.07
2018-04-07T14:06:02.449Z,29.56
2018-04-07T14:08:30.924Z,30.26
2018-04-07T14:11:01.875Z,30.52
2018-04-07T14:13:30.444Z,31.61
2018-04-07T14:21:54.019Z,31.52
2018-04-07T14:24:22.561Z,32.10
2018-04-07T14:26:51.003Z,31.19
2018-04-07T14:29:19.365Z,31.43
2018-04-07T14:31:48.168Z,30.90
2018-04-07T14:34:16.509Z,31.81
2018-04-07T14:36:44.911Z,32.08
2018-04-07T14:39:13.316Z,32.13
2018-04-07T14:41:41.676Z,31.78
2018-04-07T14:44:10.193Z,32.30
2018-04-07T14:46:38.573Z,32.62
2018-04-07T14:49:08.078Z,32.65
2018-04-07T14:51:36.541Z,32.81
2018-04-07T14:54:05.138Z,33.59
2018-04-07T14:56:33.671Z,32.82
2018-04-07T14:59:02.481Z,32.33
2018-04-07T15:01:30.845Z,32.25
2018-04-07T15:03:59.484Z,32.22
2018-04-07T15:06:28.040Z,32.71
2018-04-07T15:08:56.893Z,32.62
2018-04-07T15:11:25.318Z,32.69
2018-04-07T15:13:54.177Z,32.16
2018-04-07T15:16:22.569Z,32.88
2018-04-07T15:18:51.261Z,31.72
2018-04-07T15:21:19.606Z,31.83
2018-04-07T15:23:48.014Z,32.60
2018-04-07T15:26:16.394Z,32.20
2018-04-07T15:28:44.726Z,32.12
2018-04-07T15:31:13.429Z,31.13
2018-04-07T15:33:41.756Z,31.33
2018-04-07T15:36:10.102Z,31.59
2018-04-07T15:38:38.474Z,31.37
2018-04-07T15:41:09.113Z,31.60
2018-04-07T15:43:37.530Z,30.47
2018-04-07T15:46:05.981Z,30.61
2018-04-07T15:48:34.397Z,30.60
2018-04-07T15:51:03.088Z,30.68
2018-04-07T15:53:31.412Z,30.82
2018-04-07T15:55:59.782Z,30.20
2018-04-07T15:58:28.047Z,29.99
2018-04-07T16:00:56.663Z,28.68
2018-04-07T16:03:25.093Z,29.61
2018-04-07T16:05:53.456Z,29.14
2018-04-07T16:08:21.898Z,28.75
2018-04-07T16:10:50.520Z,28.32
2018-04-07T16:13:19.180Z,28.14
2018-04-07T16:15:47.548Z,27.89
2018-04-07T16:18:16.000Z,27.39
2018-04-07T16:20:44.682Z,26.73
2018-04-07T16:23:13.001Z,26.53
2018-04-07T16:25:41.374Z,25.87
2018-04-07T16:28:09.689Z,25.32
2018-04-07T16:30:38.321Z,24.93
2018-04-07T16:33:06.673Z,24.57
2018-04-07T16:35:34.997Z,24.21
2018-04-07T16:38:03.499Z,23.96
2018-04-07T16:40:32.151Z,23.76
2018-04-07T16:43:00.636Z,23.42
2018-04-07T16:45:29.009Z,23.37
2018-04-07T16:47:57.357Z,23.33
2018-04-07T16:50:26.084Z,23.15
2018-04-07T16:52:54.514Z,23.23
2018-04-07T16:55:23.278Z,23.03
2018-04-07T16:57:57.723Z,22.63
2018-04-07T17:00:26.148Z,22.63
2018-04-07T17:02:54.505Z,22.43
2018-04-07T17:05:22.861Z,22.26
2018-04-07T17:07:51.703Z,22.15
2018-04-07T17:10:20.146Z,22.07
2018-04-07T17:12:48.524Z,21.96
2018-04-07T17:15:17.041Z,21.69
2018-04-07T17:17:45.494Z,21.58
2018-04-07T17:20:13.840Z,21.34
2018-04-07T17:22:42.171Z,21.21
2018-04-07T17:25:18.919Z,21.15
2018-04-07T17:27:47.484Z,21.01
2018-04-07T17:30:15.847Z,20.93
2018-04-07T17:32:44.447Z,20.71
2018-04-07T17:35:13.145Z,20.59
2018-04-07T17:37:41.537Z,20.55
2018-04-07T17:40:11.014Z,20.51
2018-04-07T17:42:39.451Z,20.54
2018-04-07T17:45:09.261Z,20.29
2018-04-07T17:47:37.658Z,20.02
2018-04-07T17:50:07.460Z,20.03
2018-04-07T17:52:35.833Z,19.91
2018-04-07T17:55:04.437Z,19.83
2018-04-07T17:57:33.113Z,19.81
2018-04-07T18:00:01.901Z,19.72
2018-04-07T18:02:30.286Z,19.49
2018-04-07T18:04:58.650Z,19.34
2018-04-07T18:07:26.952Z,19.11
2018-04-07T18:09:55.323Z,19.09
2018-04-07T18:12:23.644Z,18.88
2018-04-07T18:14:53.459Z,18.77
2018-04-07T18:17:21.785Z,18.57
2018-04-07T18:19:51.640Z,18.42
2018-04-07T18:22:20.144Z,18.35
2018-04-07T18:24:48.438Z,18.13
2018-04-07T18:27:18.604Z,18.06
2018-04-07T18:29:49.072Z,17.89
2018-04-07T18:32:17.653Z,17.81
2018-04-07T18:34:46.063Z,17.90
2018-04-07T18:37:14.791Z,17.61
2018-04-07T18:39:44.707Z,17.51
2018-04-07T18:42:13.388Z,17.69
2018-04-07T18:44:41.896Z,17.54
2018-04-07T18:47:10.188Z,17.42
2018-04-07T18:49:43.972Z,17.45
2018-04-07T18:52:12.348Z,17.34
2018-04-07T18:54:40.782Z,17.02
2018-04-07T18:57:09.212Z,16.80
2018-04-07T18:59:40.059Z,16.59
2018-04-07T19:02:08.407Z,16.63
2018-04-07T19:04:36.828Z,16.69
2018-04-07T19:07:05.853Z,16.49
2018-04-07T19:09:36.079Z,16.30
2018-04-07T19:12:04.430Z,16.14
2018-04-07T19:14:32.876Z,16.18
2018-04-07T19:19:34.382Z,15.99
2018-04-07T19:22:02.926Z,15.77
2018-04-07T19:24:32.480Z,15.73
2018-04-07T19:27:00.952Z,15.85
2018-04-07T19:29:29.649Z,15.62
2018-04-07T19:31:57.978Z,15.67
2018-04-07T19:34:26.367Z,15.76
2018-04-07T19:36:54.969Z,15.61
2018-04-07T19:39:28.695Z,15.49
2018-04-07T19:42:00.667Z,15.35
2018-04-07T19:44:29.676Z,15.39
2018-04-07T19:46:59.688Z,15.36
2018-04-07T19:49:28.835Z,15.44
2018-04-07T19:51:57.640Z,15.35
2018-04-07T19:54:26.182Z,15.25
2018-04-07T19:56:56.835Z,15.26
2018-04-07T19:59:25.497Z,15.09
2018-04-07T20:01:54.017Z,15.24
2018-04-07T20:04:22.536Z,15.18
2018-04-07T20:06:51.173Z,15.07
2018-04-07T20:09:19.558Z,14.99
2018-04-07T20:11:47.957Z,14.95
2018-04-07T20:14:16.886Z,14.78
2018-04-07T20:16:45.376Z,14.62
2018-04-07T20:19:13.697Z,14.48
2018-04-07T20:21:42.061Z,14.32
2018-04-07T20:24:12.801Z,14.27
2018-04-07T20:26:41.089Z,14.39
2018-04-07T20:29:09.551Z,14.33
2018-04-07T20:31:37.840Z,14.25
2018-04-07T20:34:06.563Z,14.18
2018-04-07T20:36:34.886Z,14.05
2018-04-07T20:39:03.301Z,14.07
2018-04-07T20:41:31.929Z,14.12
2018-04-07T20:44:01.792Z,14.03
2018-04-07T20:46:30.143Z,14.03
2018-04-07T20:48:58.440Z,13.96
2018-04-07T20:51:26.916Z,13.92
2018-04-07T20:53:55.297Z,13.89
2018-04-07T20:56:23.684Z,13.89
2018-04-07T20:58:58.961Z,13.77
2018-04-07T21:01:27.297Z,13.67
2018-04-07T21:03:55.629Z,13.63
2018-04-07T21:06:23.989Z,13.72
2018-04-07T21:08:53.652Z,13.65
2018-04-07T21:11:22.043Z,13.43
2018-04-07T21:13:50.507Z,13.37
2018-04-07T21:16:18.793Z,13.34
2018-04-07T21:18:47.378Z,13.37
2018-04-07T21:21:15.700Z,13.27
2018-04-07T21:23:44.014Z,13.22
2018-04-07T21:26:12.676Z,13.18
2018-04-07T21:28:41.318Z,13.16
2018-04-07T21:31:09.660Z,13.14
2018-04-07T21:33:38.158Z,13.03
2018-04-07T21:36:06.586Z,13.02
2018-04-07T21:38:36.412Z,13.08
2018-04-07T21:41:05.644Z,13.01
2018-04-07T21:43:34.262Z,13.00
2018-04-07T21:46:02.633Z,12.95
2018-04-07T21:48:32.552Z,12.83
2018-04-07T21:51:00.983Z,12.74
2018-04-07T21:53:29.462Z,12.62
2018-04-07T21:55:57.770Z,12.61
2018-04-07T21:58:27.254Z,12.58
2018-04-07T22:00:55.639Z,12.61
2018-04-07T22:03:25.260Z,12.52
2018-04-07T22:05:53.695Z,12.41
2018-04-07T22:08:22.109Z,12.24
2018-04-07T22:10:50.570Z,12.21
2018-04-07T22:13:19.972Z,12.06
2018-04-07T22:15:48.522Z,12.16
2018-04-07T22:18:16.887Z,12.06
2018-04-07T22:20:45.208Z,11.98
2018-04-07T22:23:14.142Z,11.88
2018-04-07T22:25:42.518Z,11.93
2018-04-07T22:28:10.917Z,11.80
2018-04-07T22:30:39.307Z,11.75
2018-04-07T22:33:09.109Z,11.70
2018-04-07T22:35:37.584Z,11.62
2018-04-07T22:38:05.922Z,11.60
2018-04-07T22:40:34.419Z,11.46
2018-04-07T22:43:05.571Z,11.54
2018-04-07T22:45:33.965Z,11.41
2018-04-07T22:48:02.296Z,11.32
2018-04-07T22:50:30.613Z,11.24
2018-04-07T22:53:01.382Z,11.19
2018-04-07T22:55:30.352Z,11.21
2018-04-07T22:57:58.732Z,11.20
2018-04-07T23:00:27.314Z,11.14
2018-04-07T23:02:56.070Z,11.05
2018-04-07T23:05:24.486Z,10.95
2018-04-07T23:07:53.194Z,10.95
2018-04-07T23:10:21.596Z,10.90
2018-04-07T23:12:52.245Z,10.81
2018-04-07T23:15:22.104Z,10.87
2018-04-07T23:17:52.024Z,10.81
2018-04-07T23:20:21.451Z,10.82
2018-04-07T23:22:50.362Z,10.77
2018-04-07T23:25:18.759Z,10.78
2018-04-07T23:27:47.500Z,10.72
2018-04-07T23:30:15.947Z,10.54
2018-04-07T23:32:44.803Z,10.48
2018-04-07T23:35:13.342Z,10.48
2018-04-07T23:37:41.864Z,10.41
2018-04-07T23:40:10.342Z,10.43
2018-04-07T23:42:39.580Z,10.38
2018-04-07T23:45:10.037Z,10.38
2018-04-07T23:47:38.597Z,10.32
2018-04-07T23:50:08.300Z,10.27
2018-04-07T23:52:36.978Z,10.28
2018-04-07T23:55:07.118Z,10.23
2018-04-07T23:57:35.600Z,10.20
